createdAt,value
2019-04-07T12:17:24.518Z,17.40
2019-04-07T12:20:17.656Z,17.10
2019-04-07T12:23:10.698Z,16.42
2019-04-07T12:26:16.061Z,16.55
2019-04-07T12:29:09.174Z,17.65
2019-04-07T12:32:15.888Z,17.27
2019-04-07T12:35:09.368Z,17.82
2019-04-07T12:38:12.275Z,16.75
2019-04-07T12:41:15.046Z,16.90
2019-04-07T12:43:59.259Z,16.27
2019-04-07T12:47:03.194Z,15.50
2019-04-07T12:49:53.170Z,16.73
2019-04-07T12:52:40.958Z,15.78
2019-04-07T12:55:44.017Z,15.80
2019-04-07T12:58:50.524Z,15.63
2019-04-07T13:01:54.058Z,16.20
2019-04-07T13:04:55.991Z,17.07
2019-04-07T13:07:56.501Z,16.50
2019-04-07T13:10:43.605Z,15.18
2019-04-07T13:13:42.574Z,15.03
2019-04-07T13:16:39.182Z,15.05
2019-04-07T13:19:27.463Z,15.83
2019-04-07T13:22:15.136Z,16.15
2019-04-07T13:25:04.502Z,15.08
2019-04-07T13:27:57.752Z,15.28
2019-04-07T13:30:56.927Z,15.90
2019-04-07T13:33:50.077Z,15.63
2019-04-07T13:36:51.664Z,16.30
2019-04-07T13:39:40.758Z,15.90
2019-04-07T13:42:36.810Z,15.70
2019-04-07T13:45:26.517Z,17.27
2019-04-07T13:48:25.876Z,18.00
2019-04-07T13:51:19.730Z,18.23
2019-04-07T13:54:06.964Z,18.05
2019-04-07T13:57:11.274Z,17.92
2019-04-07T13:59:58.879Z,19.98
2019-04-07T14:03:03.149Z,19.02
2019-04-07T14:05:55.510Z,19.65
2019-04-07T14:08:42.698Z,22.58
2019-04-07T14:12:01.596Z,19.90
2019-04-07T14:14:42.595Z,19.70
2019-04-07T14:17:45.027Z,20.02
2019-04-07T14:20:35.234Z,21.10
2019-04-07T14:23:41.000Z,21.27
2019-04-07T14:26:34.616Z,19.80
2019-04-07T14:29:21.989Z,19.65
2019-04-07T14:32:18.462Z,18.87
2019-04-07T14:35:22.603Z,18.85
2019-04-07T14:38:26.563Z,18.12
2019-04-07T14:41:31.246Z,18.35
2019-04-07T14:44:21.440Z,20.55
2019-04-07T14:47:08.821Z,19.92
2019-04-07T14:50:02.009Z,22.07
2019-04-07T14:52:55.026Z,20.55
2019-04-07T14:56:04.272Z,23.35
2019-04-07T14:58:56.279Z,21.33
2019-04-07T15:01:53.644Z,22.20
2019-04-07T15:04:46.656Z,22.40
2019-04-07T15:07:50.304Z,21.77
2019-04-07T15:10:37.908Z,22.22
2019-04-07T15:13:28.084Z,22.25
2019-04-07T15:16:11.948Z,19.80
2019-04-07T15:18:57.502Z,20.55
2019-04-07T15:21:44.260Z,21.75
2019-04-07T15:24:29.560Z,20.77
2019-04-07T15:27:15.507Z,20.43
2019-04-07T15:30:02.352Z,19.48
2019-04-07T15:32:48.386Z,19.95
2019-04-07T15:35:34.123Z,21.25
2019-04-07T15:38:23.863Z,18.32
2019-04-07T15:41:10.723Z,19.23
2019-04-07T15:43:55.168Z,18.70
2019-04-07T15:46:41.529Z,18.17
2019-04-07T15:49:28.306Z,18.05
2019-04-07T15:52:14.109Z,18.92
2019-04-07T15:54:59.624Z,17.75
2019-04-07T15:57:44.772Z,18.75
2019-04-07T16:00:32.311Z,18.87
2019-04-07T16:03:17.245Z,18.73
2019-04-07T16:06:03.433Z,17.87
2019-04-07T16:08:51.127Z,19.02
2019-04-07T16:11:36.963Z,17.90
2019-04-07T16:14:23.010Z,20.37
2019-04-07T16:17:10.506Z,17.85
2019-04-07T16:19:56.642Z,18.07
2019-04-07T16:22:44.183Z,18.73
2019-04-07T16:25:29.158Z,18.67
2019-04-07T16:28:16.118Z,18.62
2019-04-07T16:31:01.565Z,17.77
2019-04-07T16:33:46.977Z,18.50
2019-04-07T16:36:32.519Z,20.37
2019-04-07T16:39:17.889Z,18.40
2019-04-07T16:42:04.254Z,17.85
2019-04-07T16:44:49.411Z,18.10
2019-04-07T16:47:37.012Z,19.85
2019-04-07T16:50:22.982Z,17.00
2019-04-07T16:53:09.218Z,17.62
2019-04-07T16:55:55.654Z,18.67
2019-04-07T16:58:41.593Z,18.87
2019-04-07T17:01:26.856Z,17.30
2019-04-07T17:04:12.799Z,18.00
2019-04-07T17:07:03.308Z,16.48
2019-04-07T17:09:46.712Z,17.40
2019-04-07T17:12:32.354Z,16.62
2019-04-07T17:15:19.569Z,16.02
2019-04-07T17:18:08.413Z,15.55
2019-04-07T17:20:55.198Z,16.30
2019-04-07T17:23:40.917Z,15.00
2019-04-07T17:26:26.435Z,16.48
2019-04-07T17:29:11.433Z,17.42
2019-04-07T17:32:01.205Z,17.32
2019-04-07T17:34:44.629Z,15.95
2019-04-07T17:37:29.856Z,16.02
2019-04-07T17:40:17.656Z,15.95
2019-04-07T17:43:25.785Z,17.07
2019-04-07T17:46:25.805Z,15.93
2019-04-07T17:49:30.889Z,15.78
2019-04-07T17:52:33.734Z,16.10
2019-04-07T17:55:28.003Z,16.32
2019-04-07T17:58:18.935Z,16.87
2019-04-07T18:01:24.540Z,16.35
2019-04-07T18:04:14.639Z,16.27
2019-04-07T18:07:05.775Z,16.52
2019-04-07T18:10:01.067Z,17.20
2019-04-07T18:12:49.903Z,19.40
2019-04-07T18:15:40.440Z,18.10
2019-04-07T18:18:34.573Z,18.42
2019-04-07T18:21:39.753Z,18.62
2019-04-07T18:24:30.637Z,18.77
2019-04-07T18:27:27.646Z,18.30
2019-04-07T18:30:14.800Z,18.32
2019-04-07T18:33:02.068Z,21.62
2019-04-07T18:36:03.007Z,22.25
2019-04-07T18:38:54.911Z,25.52
2019-04-07T18:41:45.769Z,21.93
2019-04-07T18:44:40.023Z,21.50
2019-04-07T18:47:34.923Z,21.07
2019-04-07T18:50:23.844Z,22.82
2019-04-07T18:53:26.187Z,23.30
2019-04-07T18:56:29.174Z,21.27
2019-04-07T18:59:33.414Z,22.77
2019-04-07T19:02:23.286Z,23.77
2019-04-07T19:05:14.445Z,24.52
2019-04-07T19:08:08.163Z,23.67
2019-04-07T19:11:10.782Z,23.77
2019-04-07T19:13:48.007Z,26.35
2019-04-07T19:16:53.194Z,23.70
2019-04-07T19:19:57.411Z,26.02
2019-04-07T19:23:00.206Z,24.30
2019-04-07T19:25:54.377Z,25.05
2019-04-07T19:28:42.339Z,26.57
2019-04-07T19:31:49.837Z,25.55
2019-04-07T19:34:35.580Z,25.62
2019-04-07T19:37:32.516Z,24.07
2019-04-07T19:40:36.707Z,24.65
2019-04-07T19:43:41.862Z,26.45
2019-04-07T19:46:40.716Z,25.23
2019-04-07T19:49:37.404Z,24.25
2019-04-07T19:52:34.102Z,24.52
2019-04-07T19:55:22.624Z,25.00
2019-04-07T19:58:26.195Z,24.37
2019-04-07T20:01:14.808Z,25.30
2019-04-07T20:04:18.643Z,23.20
2019-04-07T20:07:21.091Z,23.83
2019-04-07T20:10:08.836Z,24.75
2019-04-07T20:13:14.197Z,25.65
2019-04-07T20:16:02.946Z,25.12
2019-04-07T20:19:06.909Z,25.20
2019-04-07T20:22:06.922Z,26.30
2019-04-07T20:25:15.957Z,24.92
2019-04-07T20:28:02.219Z,23.87
2019-04-07T20:31:06.238Z,26.10
2019-04-07T20:33:53.542Z,26.55
2019-04-07T20:36:51.752Z,24.92
2019-04-07T20:39:45.829Z,27.25
2019-04-07T20:42:33.136Z,28.33
2019-04-07T20:45:29.275Z,27.22
2019-04-07T20:48:22.845Z,27.57
2019-04-07T20:51:10.345Z,26.60
2019-04-07T20:54:03.904Z,27.73
2019-04-07T20:57:03.244Z,27.83
2019-04-07T20:59:56.935Z,26.80
2019-04-07T21:03:06.444Z,26.87
2019-04-07T21:05:56.283Z,27.27
2019-04-07T21:08:43.500Z,26.70
2019-04-07T21:11:47.472Z,27.53
2019-04-07T21:14:41.081Z,27.87
2019-04-07T21:17:45.007Z,27.10
2019-04-07T21:20:50.424Z,30.33
2019-04-07T21:23:38.162Z,30.50
2019-04-07T21:26:27.270Z,27.73
2019-04-07T21:29:18.106Z,31.23
2019-04-07T21:32:09.601Z,29.97
2019-04-07T21:35:00.754Z,31.90
2019-04-07T21:37:51.916Z,29.57
2019-04-07T21:40:51.622Z,30.93
2019-04-07T21:43:46.658Z,28.47
2019-04-07T21:46:39.484Z,27.97
2019-04-07T21:49:35.379Z,30.93
2019-04-07T21:52:28.133Z,32.80
2019-04-07T21:55:31.751Z,30.43
2019-04-07T21:58:28.013Z,30.17
2019-04-07T22:01:21.392Z,29.70
2019-04-07T22:04:25.376Z,29.60
2019-04-07T22:07:13.268Z,30.33
2019-04-07T22:10:00.399Z,31.43
2019-04-07T22:12:45.354Z,31.03
2019-04-07T22:15:42.112Z,31.47
2019-04-07T22:18:17.728Z,31.47
2019-04-07T22:21:03.372Z,30.80
2019-04-07T22:23:48.582Z,32.37
2019-04-07T22:26:34.924Z,30.73
2019-04-07T22:29:20.392Z,30.27
2019-04-07T22:32:05.744Z,29.40
2019-04-07T22:34:52.378Z,30.03
2019-04-07T22:37:37.726Z,31.30
2019-04-07T22:40:23.937Z,31.07
2019-04-07T22:43:11.296Z,30.33
2019-04-07T22:46:07.074Z,31.77
2019-04-07T22:48:43.877Z,30.77
2019-04-07T22:51:29.227Z,30.63
2019-04-07T22:54:14.300Z,30.47
2019-04-07T22:57:00.641Z,31.10
2019-04-07T22:59:45.871Z,31.83
2019-04-07T23:02:30.667Z,30.67
2019-04-07T23:05:15.642Z,30.13
2019-04-07T23:08:01.762Z,30.43
2019-04-07T23:10:47.790Z,31.97
2019-04-07T23:13:33.445Z,34.03
2019-04-07T23:16:18.982Z,34.57
2019-04-07T23:19:05.314Z,33.73
2019-04-07T23:21:51.270Z,32.00
2019-04-07T23:24:37.027Z,33.70
2019-04-07T23:27:22.158Z,32.33
2019-04-07T23:30:08.836Z,33.73
2019-04-07T23:32:55.681Z,33.80
2019-04-07T23:35:41.303Z,33.60
2019-04-07T23:38:26.163Z,33.00
2019-04-07T23:41:11.670Z,34.70
2019-04-07T23:43:59.341Z,32.87
2019-04-07T23:46:44.678Z,34.00
2019-04-07T23:49:30.067Z,33.97
2019-04-07T23:52:15.011Z,39.50
2019-04-07T23:55:00.334Z,35.63
2019-04-07T23:57:45.334Z,34.23
